Point Of Ayre, Isle of Man
Current Conditions -  °F | °C
As of 6:20 AM on Thursday 23 Oct 2014 (Local Time) from EGNS Reporting Station
Broken Clouds Broken Clouds  
Wind Chill: 57°   Ceiling: 3000
Heat Index: 57°   Visibility: 6mi
Dew Point: 52°   Wind: 16mph
Humidity: 82%   Direction: 240°WSW
Pressure: 29.94"   Gusts: NA
Location:  54.42°N, 4.37°W
Report Text: EGNS 230520Z 24014KT 210V270 9999 FEW018 BKN030 14/11 Q1014 NOSIG
Loading
Personal Weather Stations






























Interactive Weather Map
Tropical Storm Tracking
New forecast layout! Learn more

10-Day Weather Forecast

Advertisements
Track Severe Weather on mobile